Time;durP1;ratioP1;P1;durP2;ratioP2;P2;SDS_P1;SDS_P2;PMS_P1;PMS_P2;Temp;Humidity;BMP_temperature;BMP_pressure;BME280_temperature;BME280_humidity;BME280_pressure;Samples;Min_cycle;Max_cycle;Signal;HPM_P1;HPM_P2
2022/05/14 00:01:03;;;;;;;14.23;4.28;;;;;;;11.91;93.14;101064.09;8391072;28;20033;-62
2022/05/14 00:05:05;;;;;;;12.02;4.22;;;;;;;11.85;93.43;101070.06;8427986;28;20032;-69
2022/05/14 00:09:06;;;;;;;7.30;3.92;;;;;;;11.71;93.60;101068.56;8401960;28;20047;-62
2022/05/14 00:13:06;;;;;;;11.95;4.57;;;;;;;11.83;93.55;101070.19;8395605;28;20372;-62
2022/05/14 00:17:07;;;;;;;13.95;3.45;;;;;;;11.95;93.39;101065.53;8388720;28;20033;-62
2022/05/14 00:21:08;;;;;;;13.88;3.95;;;;;;;11.84;94.17;101063.78;8407924;28;20119;-62
2022/05/14 00:25:09;;;;;;;8.93;4.15;;;;;;;11.97;93.05;101057.25;8387340;28;20036;-61
2022/05/14 00:29:10;;;;;;;8.43;3.13;;;;;;;11.95;92.43;101053.84;8407529;28;20044;-61
2022/05/14 00:33:11;;;;;;;11.30;3.40;;;;;;;11.59;94.16;101047.94;8390615;28;20049;-61
2022/05/14 00:37:12;;;;;;;9.23;3.60;;;;;;;11.42;95.73;101053.97;8385200;28;20067;-61
2022/05/14 00:41:12;;;;;;;17.83;3.90;;;;;;;11.82;93.64;101049.53;8393948;28;20059;-61
2022/05/14 00:45:16;;;;;;;7.70;3.35;;;;;;;11.93;92.22;101049.41;8404956;28;20562;-61
2022/05/14 00:49:21;;;;;;;8.45;3.38;;;;;;;12.18;91.65;101049.94;8431974;28;20059;-62
2022/05/14 00:53:27;;;;;;;8.63;3.20;;;;;;;12.08;91.52;101066.19;8386418;28;20036;-61
2022/05/14 00:57:37;;;;;;;7.20;3.10;;;;;;;12.22;91.51;101062.22;8388356;28;20128;-61
2022/05/14 01:01:37;;;;;;;9.13;2.72;;;;;;;12.34;90.30;101061.09;8391526;28;20072;-62
2022/05/14 01:05:38;;;;;;;9.88;3.70;;;;;;;12.37;89.65;101064.41;8406359;28;20065;-62
2022/05/14 01:09:43;;;;;;;9.50;3.72;;;;;;;12.27;90.15;101070.78;8393412;28;20092;-62
2022/05/14 01:13:44;;;;;;;;;;;;;;;12.31;90.10;101067.66;8406775;28;20037;-62
2022/05/14 01:17:45;;;;;;;10.52;2.80;;;;;;;12.43;88.64;101058.44;8407916;28;20353;-63
2022/05/14 01:22:25;;;;;;;11.15;2.75;;;;;;;12.38;88.54;101057.97;8397494;28;20090;-62
2022/05/14 01:26:28;;;;;;;11.02;3.22;;;;;;;12.20;89.38;101065.06;8375504;28;20488;-62
2022/05/14 01:30:30;;;;;;;11.38;2.80;;;;;;;12.08;89.10;101066.19;8403296;28;20521;-62
2022/05/14 01:34:32;;;;;;;8.40;3.33;;;;;;;12.07;89.05;101053.59;8410505;28;20386;-62
2022/05/14 01:38:33;;;;;;;11.93;3.38;;;;;;;11.86;90.29;101066.34;8389215;28;20574;-62
2022/05/14 01:42:34;;;;;;;5.20;3.38;;;;;;;11.77;90.75;101068.03;8378773;28;20439;-62
2022/05/14 01:46:35;;;;;;;10.15;3.53;;;;;;;11.85;90.63;101065.50;8392245;28;20040;-62
2022/05/14 01:50:38;;;;;;;5.70;2.72;;;;;;;11.79;91.16;101067.88;8390333;28;20037;-62
2022/05/14 01:54:38;;;;;;;7.72;3.33;;;;;;;11.65;91.64;101063.69;8383603;28;20051;-62
2022/05/14 01:58:39;;;;;;;8.95;3.70;;;;;;;11.22;93.07;101062.94;8400610;28;20036;-63
2022/05/14 02:02:39;;;;;;;6.57;3.97;;;;;;;10.56;98.30;101059.66;8394966;28;20024;-62
2022/05/14 02:06:42;;;;;;;13.25;4.22;;;;;;;10.72;99.36;101069.06;8392621;28;20037;-62
2022/05/14 02:10:42;;;;;;;12.30;3.70;;;;;;;10.92;97.51;101062.84;8391026;28;20082;-62
2022/05/14 02:14:44;;;;;;;9.02;3.47;;;;;;;11.13;95.99;101063.72;8390273;28;20067;-62
2022/05/14 02:18:45;;;;;;;10.30;3.28;;;;;;;11.23;94.06;101053.81;8402998;28;20611;-62
2022/05/14 02:22:45;;;;;;;10.77;3.13;;;;;;;11.55;91.60;101067.28;8376637;28;20060;-63
2022/05/14 02:26:45;;;;;;;7.85;3.35;;;;;;;11.68;90.16;101063.41;8390723;28;20036;-63
2022/05/14 02:30:47;;;;;;;7.18;3.58;;;;;;;11.67;89.57;101067.13;8394208;28;20036;-62
2022/05/14 02:34:47;;;;;;;10.27;3.72;;;;;;;11.55;90.15;101067.28;8403174;28;20044;-62
2022/05/14 02:38:48;;;;;;;5.45;3.28;;;;;;;11.71;89.27;101063.16;8398627;28;20040;-62
2022/05/14 02:42:48;;;;;;;11.90;3.22;;;;;;;11.52;90.06;101068.41;8408894;28;20033;-62
2022/05/14 02:46:49;;;;;;;10.75;3.17;;;;;;;11.40;90.24;101072.19;8377491;28;20349;-62
2022/05/14 02:50:49;;;;;;;9.63;3.08;;;;;;;11.27;90.13;101076.06;8403477;28;20029;-62
2022/05/14 02:54:50;;;;;;;8.25;3.30;;;;;;;10.81;93.77;101083.66;8396320;28;20036;-62
2022/05/14 02:59:07;;;;;;;7.50;3.50;;;;;;;10.47;95.52;101077.50;8391673;28;20055;-62
2022/05/14 03:03:07;;;;;;;11.80;3.05;;;;;;;10.64;94.03;101085.06;8404596;28;20040;-62
2022/05/14 03:07:11;;;;;;;7.83;2.83;;;;;;;10.87;92.00;101078.63;8399257;28;20037;-62
2022/05/14 03:11:11;;;;;;;6.03;2.47;;;;;;;11.14;90.03;101083.53;8385551;28;20276;-62
2022/05/14 03:15:12;;;;;;;6.20;2.90;;;;;;;11.20;89.38;101070.31;8397389;28;20128;-62
2022/05/14 03:19:13;;;;;;;10.93;3.00;;;;;;;10.76;89.25;101075.94;8393774;28;20044;-62
2022/05/14 03:23:13;;;;;;;6.28;3.38;;;;;;;10.28;91.91;101081.84;8384598;28;20044;-62
2022/05/14 03:27:14;;;;;;;10.07;3.70;;;;;;;10.39;92.87;101073.69;8386461;28;20400;-62
2022/05/14 03:31:15;;;;;;;6.07;3.13;;;;;;;10.64;92.20;101079.66;8389663;28;20040;-64
2022/05/14 03:35:15;;;;;;;8.82;3.42;;;;;;;10.89;90.92;101083.91;8398656;28;20102;-62
2022/05/14 03:39:17;;;;;;;8.45;2.92;;;;;;;10.93;90.46;101078.09;8387931;28;20063;-61
2022/05/14 03:43:17;;;;;;;6.15;2.63;;;;;;;10.86;90.56;101073.34;8388016;28;20090;-61
2022/05/14 03:47:18;;;;;;;7.82;3.03;;;;;;;10.86;90.08;101073.34;8383197;28;20041;-62
2022/05/14 03:51:19;;;;;;;10.85;3.33;;;;;;;10.80;89.75;101074.69;8382511;28;20041;-61
2022/05/14 03:55:19;;;;;;;9.88;2.88;;;;;;;10.82;89.54;101066.44;8411501;28;20692;-62
2022/05/14 03:59:19;;;;;;;6.90;2.85;;;;;;;10.49;91.29;101083.63;8399250;28;20033;-62
2022/05/14 04:03:20;;;;;;;11.30;3.90;;;;;;;9.85;93.00;101081.69;8408977;28;20052;-62
2022/05/14 04:07:20;;;;;;;7.55;3.30;;;;;;;9.42;95.19;101086.06;8411745;28;20275;-62
2022/05/14 04:11:21;;;;;;;8.32;3.10;;;;;;;9.45;95.88;101081.28;8396645;28;20049;-63
2022/05/14 04:15:23;;;;;;;13.25;3.85;;;;;;;9.58;95.60;101086.59;8396614;28;20479;-63
2022/05/14 04:19:24;;;;;;;10.63;3.63;;;;;;;9.64;96.01;101080.72;8404884;28;20210;-63
2022/05/14 04:23:28;;;;;;;13.48;3.10;;;;;;;9.83;95.67;101080.97;8413561;28;20071;-67
2022/05/14 04:27:28;;;;;;;9.00;2.85;;;;;;;10.20;93.80;101085.16;8387461;28;20115;-62
2022/05/14 04:31:29;;;;;;;14.10;3.83;;;;;;;10.25;92.92;101091.06;8393875;28;20040;-62
2022/05/14 04:35:29;;;;;;;10.70;2.60;;;;;;;10.21;93.52;101092.28;8390511;28;20044;-62
2022/05/14 04:39:32;;;;;;;7.85;3.30;;;;;;;10.20;91.66;101089.69;8399244;28;20111;-61
2022/05/14 04:43:33;;;;;;;8.90;3.58;;;;;;;9.74;93.23;101097.91;8395027;28;20029;-61
2022/05/14 04:47:33;;;;;;;7.40;2.53;;;;;;;9.63;93.92;101108.66;8410584;28;20455;-62
2022/05/14 04:51:34;;;;;;;9.73;3.88;;;;;;;9.64;96.26;101110.41;8410562;28;20057;-62
2022/05/14 04:55:35;;;;;;;8.55;3.10;;;;;;;9.79;95.15;101107.34;8391339;28;20087;-63
2022/05/14 04:59:36;;;;;;;13.95;3.17;;;;;;;10.33;94.07;101107.50;8408437;28;20059;-62
2022/05/14 05:03:37;;;;;;;10.43;3.38;;;;;;;10.53;92.62;101109.44;8405874;28;20044;-62
2022/05/14 05:07:38;;;;;;;6.18;2.80;;;;;;;11.05;90.93;101114.06;8390053;28;20072;-62
2022/05/14 05:11:38;;;;;;;8.70;2.80;;;;;;;11.61;88.73;101112.78;8396986;28;20037;-62
2022/05/14 05:15:40;;;;;;;7.45;3.22;;;;;;;11.86;86.58;101118.69;8390172;28;20068;-63
2022/05/14 05:19:40;;;;;;;7.72;2.92;;;;;;;11.54;87.15;101120.59;8405622;28;20033;-63
2022/05/14 05:23:41;;;;;;;5.50;2.90;;;;;;;11.45;87.76;101126.81;8394920;28;20048;-63
2022/05/14 05:27:41;;;;;;;7.68;3.00;;;;;;;11.62;87.07;101119.97;8395669;28;20403;-63
2022/05/14 05:31:41;;;;;;;9.75;3.20;;;;;;;11.79;87.00;101131.06;8396013;28;20040;-63
2022/05/14 05:35:42;;;;;;;11.02;2.88;;;;;;;11.89;86.37;101126.56;8399353;28;20037;-62
2022/05/14 05:39:43;;;;;;;6.43;2.47;;;;;;;12.42;83.49;101129.06;8404566;28;20028;-63
2022/05/14 05:43:43;;;;;;;7.55;2.75;;;;;;;12.52;82.99;101136.25;8403318;28;20029;-63
2022/05/14 05:47:44;;;;;;;9.25;3.30;;;;;;;12.90;82.44;101144.47;8394206;28;20037;-63
2022/05/14 05:51:44;;;;;;;9.38;3.53;;;;;;;12.76;81.60;101144.03;8409782;28;20040;-63
2022/05/14 05:56:47;;;;;;;7.80;3.00;;;;;;;13.16;81.72;101150.25;8398569;28;20040;-63
2022/05/14 06:00:12;;;;;;;12.93;3.28;;;;;;;13.67;81.16;101145.41;8386923;28;20041;-62
2022/05/14 06:04:13;;;;;;;10.75;2.47;;;;;;;14.01;78.67;101156.63;8388578;28;20042;-62
2022/05/14 06:08:19;;;;;;;8.25;3.42;;;;;;;13.48;81.73;101148.97;8384310;28;20045;-62
2022/05/14 06:12:19;;;;;;;28.67;3.42;;;;;;;13.75;81.61;101156.38;8371194;28;20047;-62
2022/05/14 06:16:20;;;;;;;6.57;2.85;;;;;;;13.85;81.54;101155.38;8385921;28;20040;-62
2022/05/14 06:20:20;;;;;;;9.43;3.00;;;;;;;14.57;78.04;101158.31;8391636;28;20037;-62
2022/05/14 06:24:20;;;;;;;11.63;3.30;;;;;;;14.96;76.75;101158.94;8384745;28;20610;-63
2022/05/14 06:28:21;;;;;;;11.73;3.25;;;;;;;15.28;76.79;101157.41;8389265;28;20047;-63
2022/05/14 06:32:21;;;;;;;13.13;3.15;;;;;;;15.67;74.49;101164.31;8393156;28;20047;-63
2022/05/14 06:36:21;;;;;;;15.73;4.05;;;;;;;16.09;72.51;101158.13;8406261;28;20036;-63
2022/05/14 06:40:22;;;;;;;15.07;3.83;;;;;;;16.22;72.44;101164.03;8381087;28;20079;-63
2022/05/14 06:44:22;;;;;;;11.50;3.20;;;;;;;16.20;71.21;101166.06;8393895;28;20063;-63
2022/05/14 06:48:23;;;;;;;11.97;4.17;;;;;;;16.41;71.03;101169.25;8400653;28;20067;-63
2022/05/14 06:52:23;;;;;;;16.00;3.87;;;;;;;16.51;70.49;101176.34;8376347;28;20272;-63
2022/05/14 06:56:26;;;;;;;8.52;3.13;;;;;;;16.86;69.68;101183.47;8397556;28;20266;-63
2022/05/14 07:00:27;;;;;;;11.98;3.28;;;;;;;16.91;70.41;101183.84;8383596;28;20075;-63
2022/05/14 07:08:48;;;;;;;13.32;3.03;;;;;;;16.88;69.60;101184.19;8379505;28;20037;-63
2022/05/14 07:12:49;;;;;;;18.67;3.97;;;;;;;17.23;68.61;101187.53;8383837;28;20036;-63
2022/05/14 07:16:50;;;;;;;14.10;2.97;;;;;;;16.75;69.76;101184.66;8383872;28;20132;-63
2022/05/14 07:20:50;;;;;;;12.07;2.97;;;;;;;17.53;69.14;101183.34;8394498;28;20044;-63
2022/05/14 07:24:51;;;;;;;10.90;3.23;;;;;;;17.40;67.48;101174.78;8399477;28;20036;-62
2022/05/14 07:28:51;;;;;;;12.13;3.58;;;;;;;17.41;66.93;101181.94;8395347;28;20340;-62
2022/05/14 07:32:52;;;;;;;15.68;3.90;;;;;;;17.30;67.98;101176.81;8390168;28;20428;-62
2022/05/14 07:37:01;;;;;;;9.82;4.05;;;;;;;16.90;68.96;101176.69;8404683;28;20039;-62
2022/05/14 07:41:03;;;;;;;16.75;3.83;;;;;;;17.83;68.34;101171.75;8403422;28;20033;-62
2022/05/14 07:45:06;;;;;;;13.38;3.08;;;;;;;18.33;67.53;101169.63;8391702;28;20061;-62
2022/05/14 07:49:12;;;;;;;16.40;3.50;;;;;;;19.01;64.24;101165.31;8382789;28;20036;-61
2022/05/14 07:53:15;;;;;;;16.55;3.67;;;;;;;17.90;68.69;101167.28;8401288;28;20078;-62
2022/05/14 07:57:18;;;;;;;10.18;3.42;;;;;;;18.35;67.12;101173.06;8398552;28;20041;-63
2022/05/14 08:01:19;;;;;;;12.80;3.20;;;;;;;17.70;67.33;101171.41;8407990;28;20054;-62
2022/05/14 08:05:20;;;;;;;16.48;3.83;;;;;;;17.90;69.46;101172.78;8414718;28;20036;-62
2022/05/14 08:09:21;;;;;;;13.05;3.47;;;;;;;18.87;65.30;101163.31;8383936;28;20041;-62
2022/05/14 08:13:23;;;;;;;10.77;3.35;;;;;;;18.67;68.13;101167.50;8401590;28;20048;-62
2022/05/14 08:17:26;;;;;;;11.48;3.53;;;;;;;18.71;65.97;101173.50;8388706;28;20041;-62
2022/05/14 08:25:47;;;;;;;18.20;4.25;;;;;;;18.60;67.06;101163.78;8410492;28;20028;-62
2022/05/14 08:29:48;;;;;;;13.87;3.70;;;;;;;18.65;69.08;101169.59;8407003;28;20093;-62
2022/05/14 08:33:48;;;;;;;12.95;3.78;;;;;;;18.79;68.64;101160.59;8398994;28;21096;-62
2022/05/14 08:37:50;;;;;;;18.40;3.92;;;;;;;19.10;66.12;101169.72;8398366;28;20032;-62
2022/05/14 08:41:53;;;;;;;17.50;4.05;;;;;;;19.22;64.80;101151.81;8405879;28;20357;-62
2022/05/14 08:45:54;;;;;;;12.68;3.85;;;;;;;18.93;65.45;101154.38;8403680;28;20039;-62
2022/05/14 08:49:55;;;;;;;13.50;4.10;;;;;;;19.21;66.07;101161.09;8388985;28;20037;-62
2022/05/14 08:53:56;;;;;;;13.05;3.33;;;;;;;19.71;63.37;101148.75;8396204;28;20047;-62
2022/05/14 08:58:13;;;;;;;10.65;3.05;;;;;;;19.62;67.28;101155.34;8410030;28;20028;-62
2022/05/14 09:02:17;;;;;;;13.35;3.17;;;;;;;19.49;65.62;101153.22;8398963;28;20071;-62
2022/05/14 09:06:17;;;;;;;;;;;;;;;19.53;64.46;101143.59;8398576;28;20040;-62
2022/05/14 09:10:30;;;;;;;14.55;3.60;;;;;;;19.85;64.40;101143.31;8391674;28;19916;-62
2022/05/14 09:14:36;;;;;;;13.05;3.50;;;;;;;20.23;64.33;101144.19;8398933;28;20037;-62
2022/05/14 09:18:46;;;;;;;19.60;3.80;;;;;;;20.55;61.82;101150.16;8402727;28;20056;-62
2022/05/14 09:22:53;;;;;;;8.30;3.17;;;;;;;20.15;64.08;101161.59;8402618;28;20044;-62
2022/05/14 09:26:56;;;;;;;12.30;3.03;;;;;;;19.43;63.47;101162.19;8398428;28;20036;-62
2022/05/14 09:30:59;;;;;;;15.82;3.47;;;;;;;19.77;64.08;101150.78;8400483;28;20052;-62
2022/05/14 09:35:10;;;;;;;12.98;3.53;;;;;;;20.31;63.75;101146.84;8385565;28;20036;-63
2022/05/14 09:39:15;;;;;;;10.05;2.90;;;;;;;20.18;64.41;101142.00;8389123;28;20340;-63
2022/05/14 09:47:31;;;;;;;12.88;2.97;;;;;;;20.96;62.49;101145.06;8421270;27;20153;-61
2022/05/14 09:51:49;;;;;;;13.88;3.28;;;;;;;22.45;59.64;101131.88;8393522;28;20501;-62
2022/05/14 10:00:36;;;;;;;11.88;3.45;;;;;;;25.63;50.66;101148.78;8467385;27;20500;-83
2022/05/14 10:05:02;;;;;;;11.70;2.67;;;;;;;27.18;49.38;101138.34;8400627;27;20044;-82
2022/05/14 10:09:29;;;;;;;15.63;3.17;;;;;;;27.25;48.56;101133.56;8451368;27;20480;-82
2022/05/14 10:13:54;;;;;;;12.48;2.58;;;;;;;26.63;48.20;101132.81;8424375;27;20131;-81
2022/05/14 10:18:12;;;;;;;8.02;2.60;;;;;;;27.69;47.42;101141.50;8458139;27;20067;-82
2022/05/14 10:26:45;;;;;;;8.93;3.22;;;;;;;27.93;49.83;101134.94;8468142;27;20043;-82
2022/05/14 10:27:25;;;;;;;9.43;2.65;;;;;;;28.40;45.83;101128.34;8432489;27;20032;-82
2022/05/14 10:36:11;;;;;;;13.75;3.38;;;;;;;29.12;46.35;101138.91;8381463;27;20738;-62
2022/05/14 10:40:19;;;;;;;14.05;2.67;;;;;;;29.88;43.46;101132.91;8386359;28;20046;-63
2022/05/14 10:49:23;;;;;;;11.93;3.28;;;;;;;29.02;44.30;101133.13;8371004;27;20799;-62
2022/05/14 10:53:23;;;;;;;11.25;2.83;;;;;;;29.11;44.08;101133.59;8357263;28;20600;-62
2022/05/14 10:57:39;;;;;;;13.52;2.67;;;;;;;29.13;44.68;101132.28;8365371;28;20045;-62
2022/05/14 11:06:12;;;;;;;13.60;2.90;;;;;;;29.01;44.41;101123.06;8503818;27;20350;-63
2022/05/14 11:10:17;;;;;;;12.90;3.40;;;;;;;27.46;45.36;101113.63;8482350;27;20044;-63
2022/05/14 11:14:17;;;;;;;11.43;3.45;;;;;;;28.36;44.53;101121.56;8482916;27;20512;-63
2022/05/14 11:18:18;;;;;;;10.47;2.90;;;;;;;29.23;43.81;101115.75;8507196;27;20058;-63
2022/05/14 11:22:23;;;;;;;11.52;2.88;;;;;;;28.52;43.80;101110.56;8493011;27;20284;-63
2022/05/14 11:26:25;;;;;;;15.25;3.47;;;;;;;29.86;42.28;101107.22;8468786;27;20184;-62
2022/05/14 11:30:50;;;;;;;11.48;2.80;;;;;;;28.89;43.24;101105.53;8460909;27;20036;-63
2022/05/14 11:34:54;;;;;;;9.20;2.70;;;;;;;27.41;45.33;101105.16;8427476;27;20047;-60
2022/05/14 11:39:14;;;;;;;;;;;;;;;28.08;46.82;101101.94;8425475;27;20053;-62
2022/05/14 11:48:20;;;;;;;15.45;3.22;;;;;;;29.32;43.58;101105.91;8391787;27;20418;-61
2022/05/14 11:52:28;;;;;;;12.82;2.53;;;;;;;28.62;42.84;101098.81;8384876;28;20041;-62
2022/05/14 11:56:39;;;;;;;10.50;2.33;;;;;;;29.19;43.13;101100.66;8377074;28;20045;-62
2022/05/14 12:00:41;;;;;;;17.63;2.53;;;;;;;27.26;45.20;101099.19;8398336;28;20044;-62
2022/05/14 12:04:46;;;;;;;20.33;3.30;;;;;;;26.16;48.96;101091.88;8396915;28;20053;-62
2022/05/14 12:09:24;;;;;;;10.40;2.45;;;;;;;25.01;51.21;101094.16;8395070;28;20099;-62
2022/05/14 12:13:49;;;;;;;19.83;3.35;;;;;;;23.77;51.08;101093.56;8390610;28;20402;-62
2022/05/14 12:17:52;;;;;;;10.68;3.00;;;;;;;23.50;53.09;101085.44;8393362;28;20036;-62
2022/05/14 12:21:56;;;;;;;10.77;2.40;;;;;;;23.21;53.01;101076.44;8396749;28;20032;-62
2022/05/14 12:25:56;;;;;;;13.98;2.45;;;;;;;23.86;55.15;101072.09;8395623;28;20041;-62
2022/05/14 12:34:43;;;;;;;21.80;3.00;;;;;;;22.68;53.24;101080.09;8401780;28;20037;-62
2022/05/14 12:38:44;;;;;;;11.77;2.83;;;;;;;22.85;52.21;101075.94;8397294;28;20093;-62
2022/05/14 12:42:44;;;;;;;9.38;2.20;;;;;;;23.10;52.37;101079.84;8389817;28;20098;-59
2022/05/14 12:46:49;;;;;;;14.23;2.75;;;;;;;22.61;51.21;101070.97;8392065;28;20378;-61
2022/05/14 12:50:56;;;;;;;10.60;2.25;;;;;;;23.35;52.62;101060.81;8394825;28;20040;-61
2022/05/14 12:55:02;;;;;;;8.20;2.35;;;;;;;23.77;52.18;101048.50;8391048;28;20032;-61
2022/05/14 12:59:04;;;;;;;9.18;2.50;;;;;;;24.07;50.93;101049.78;8376569;28;20112;-61
2022/05/14 13:07:22;;;;;;;15.30;2.35;;;;;;;24.14;51.42;101039.56;8329834;28;20473;-60
2022/05/14 13:11:25;;;;;;;10.95;2.63;;;;;;;23.59;52.68;101042.78;8322119;28;20041;-62
2022/05/14 13:15:44;;;;;;;13.02;2.80;;;;;;;23.10;53.10;101041.22;8330788;28;20116;-61
2022/05/14 13:19:49;;;;;;;11.07;2.50;;;;;;;22.96;53.28;101042.22;8328414;28;20049;-61
2022/05/14 13:23:55;;;;;;;14.05;2.65;;;;;;;23.05;53.20;101038.22;8320685;28;20316;-62
2022/05/14 13:28:08;;;;;;;10.52;2.20;;;;;;;23.90;53.80;101037.44;8315246;28;20560;-60
2022/05/14 13:37:37;;;;;;;9.57;2.50;;;;;;;23.71;52.74;101028.13;8334536;27;20479;-57
2022/05/14 13:40:58;;;;;;;6.88;2.28;;;;;;;23.02;52.04;101026.75;8329284;28;20049;-61
2022/05/14 13:45:07;;;;;;;10.88;2.25;;;;;;;23.23;52.69;101032.09;8343931;28;20048;-61
2022/05/14 13:49:20;;;;;;;6.65;2.30;;;;;;;23.28;52.21;101025.97;8328246;28;20041;-61
2022/05/14 13:53:27;;;;;;;9.57;2.10;;;;;;;23.63;52.41;101024.75;8333859;28;20046;-62
2022/05/14 13:57:27;;;;;;;16.15;2.47;;;;;;;23.81;52.93;101020.25;8359938;28;20041;-62
2022/05/14 14:01:39;;;;;;;11.10;2.37;;;;;;;23.46;52.63;101017.94;8336474;28;20133;-62
2022/05/14 14:05:39;;;;;;;7.57;3.17;;;;;;;23.43;52.13;101018.34;8327131;28;20299;-62
2022/05/14 14:09:42;;;;;;;6.77;1.73;;;;;;;23.75;52.18;101017.50;8309057;28;20041;-64
2022/05/14 14:13:43;;;;;;;11.13;2.55;;;;;;;23.48;51.44;101011.13;8306067;28;20284;-62
2022/05/14 14:17:45;;;;;;;13.98;2.40;;;;;;;23.24;51.90;101008.16;8321472;28;20056;-60
2022/05/14 14:21:45;;;;;;;12.85;2.33;;;;;;;22.93;52.47;101006.78;8344482;28;20053;-61
2022/05/14 14:25:47;;;;;;;10.30;2.50;;;;;;;23.13;51.93;101006.81;8310967;28;20794;-61
2022/05/14 14:29:47;;;;;;;9.13;2.55;;;;;;;22.97;52.01;101002.53;8311930;28;20037;-62
2022/05/14 14:33:48;;;;;;;5.93;1.80;;;;;;;23.14;52.34;100994.72;8312799;28;20098;-62
2022/05/14 14:37:48;;;;;;;9.20;2.38;;;;;;;23.38;51.94;100993.28;8311710;28;20300;-62
2022/05/14 14:41:49;;;;;;;9.63;2.17;;;;;;;23.45;52.96;100988.63;8332585;28;20175;-63
2022/05/14 14:45:50;;;;;;;11.30;2.72;;;;;;;23.55;51.48;100983.53;8303840;28;20905;-60
2022/05/14 14:49:51;;;;;;;6.90;2.10;;;;;;;23.29;51.00;100989.06;8301327;28;20049;-59
2022/05/14 14:53:52;;;;;;;8.90;2.75;;;;;;;23.53;53.30;100980.97;8309431;28;20065;-61
2022/05/14 14:57:52;;;;;;;11.35;2.42;;;;;;;23.65;51.24;100976.50;8288899;28;20119;-56
2022/05/14 15:02:04;;;;;;;7.22;2.35;;;;;;;23.18;50.17;100972.03;8291506;28;20129;-62
2022/05/14 15:06:04;;;;;;;10.80;2.13;;;;;;;23.18;50.14;100971.19;8288824;28;20049;-62
2022/05/14 15:10:06;;;;;;;10.20;2.42;;;;;;;23.53;50.82;100969.94;8275862;28;20061;-62
2022/05/14 15:14:12;;;;;;;7.35;2.50;;;;;;;23.26;50.03;100967.41;8277893;28;20461;-62
2022/05/14 15:18:13;;;;;;;4.57;1.80;;;;;;;23.31;49.01;100975.88;8281760;28;20048;-62
2022/05/14 15:22:13;;;;;;;9.07;2.53;;;;;;;23.05;49.03;100977.53;8310508;28;20446;-62
2022/05/14 15:26:14;;;;;;;8.25;2.15;;;;;;;23.09;49.56;100977.97;8297243;28;20096;-62
2022/05/14 15:30:15;;;;;;;11.05;2.42;;;;;;;22.98;50.82;100975.81;8285304;28;20476;-62
2022/05/14 15:34:17;;;;;;;9.65;1.92;;;;;;;23.42;49.62;100967.81;8304220;28;20338;-59
2022/05/14 15:38:17;;;;;;;11.70;2.55;;;;;;;23.57;51.75;100964.84;8312828;28;20041;-62
2022/05/14 15:42:23;;;;;;;9.40;2.90;;;;;;;23.61;50.63;100955.06;8341959;28;20515;-62
2022/05/14 15:46:27;;;;;;;7.65;2.22;;;;;;;23.54;50.27;100955.06;8378058;28;20056;-61
2022/05/14 15:50:32;;;;;;;10.03;2.77;;;;;;;23.58;50.28;100955.50;8388836;28;20039;-60
2022/05/14 15:54:34;;;;;;;8.23;2.40;;;;;;;23.67;50.78;100954.22;8376415;28;20263;-61
2022/05/14 15:58:34;;;;;;;8.52;2.35;;;;;;;23.43;50.41;100952.09;8370435;28;20123;-63
2022/05/14 16:02:34;;;;;;;10.57;2.40;;;;;;;23.24;51.20;100953.81;8371884;28;20040;-63
2022/05/14 16:06:35;;;;;;;12.87;3.00;;;;;;;23.38;50.35;100943.59;8385096;28;20041;-63
2022/05/14 16:15:57;;;;;;;12.82;2.20;;;;;;;23.65;49.99;100950.81;8385710;28;20155;-63
2022/05/14 16:19:16;;;;;;;6.32;2.00;;;;;;;23.48;50.12;100936.59;8390762;28;20032;-62
2022/05/14 16:23:17;;;;;;;11.82;2.60;;;;;;;23.50;51.08;100933.63;8393993;28;20033;-59
2022/05/14 16:27:17;;;;;;;9.88;2.55;;;;;;;23.53;49.75;100935.94;8400945;28;20041;-61
2022/05/14 16:31:22;;;;;;;9.13;2.20;;;;;;;23.57;50.28;100937.25;8401302;28;20055;-61
2022/05/14 16:35:24;;;;;;;10.98;2.22;;;;;;;23.45;49.94;100936.19;8387603;28;20059;-61
2022/05/14 16:39:25;;;;;;;5.00;2.40;;;;;;;23.38;50.18;100927.03;8383061;28;20112;-61
2022/05/14 16:43:25;;;;;;;12.23;2.37;;;;;;;23.32;50.96;100930.69;8399202;28;20055;-61
2022/05/14 16:47:26;;;;;;;8.88;1.92;;;;;;;23.29;50.79;100933.88;8380158;28;20278;-63
2022/05/14 16:51:26;;;;;;;6.87;2.30;;;;;;;23.24;50.80;100936.41;8394670;28;20048;-63
2022/05/14 16:55:29;;;;;;;9.57;2.38;;;;;;;23.52;51.80;100931.50;8387065;28;20299;-64
2022/05/14 16:59:29;;;;;;;13.75;3.67;;;;;;;23.44;52.80;100932.56;8382932;28;20032;-60
2022/05/14 17:03:29;;;;;;;7.43;2.42;;;;;;;23.34;50.78;100931.31;8417192;28;20067;-63
2022/05/14 17:07:30;;;;;;;10.60;2.40;;;;;;;23.24;51.50;100931.75;8397185;28;20113;-61
2022/05/14 17:11:31;;;;;;;12.93;2.88;;;;;;;23.25;51.50;100927.91;8386085;28;20282;-61
2022/05/14 17:15:34;;;;;;;8.55;2.20;;;;;;;22.92;51.02;100915.97;8377220;28;20036;-62
2022/05/14 17:19:34;;;;;;;9.73;2.17;;;;;;;22.96;50.82;100922.75;8403133;28;20044;-62
2022/05/14 17:23:34;;;;;;;11.95;2.75;;;;;;;22.93;51.29;100924.03;8384833;28;20115;-62
2022/05/14 17:27:35;;;;;;;11.80;3.53;;;;;;;22.81;52.16;100920.22;8383301;28;20112;-62
2022/05/14 17:31:36;;;;;;;16.80;2.60;;;;;;;22.81;51.98;100920.22;8392569;28;20055;-62
2022/05/14 17:35:36;;;;;;;9.77;3.05;;;;;;;22.76;52.03;100917.25;8390906;28;20127;-62
2022/05/14 17:39:40;;;;;;;9.65;2.53;;;;;;;22.73;51.64;100923.19;8388011;28;20043;-62
2022/05/14 17:43:40;;;;;;;17.20;6.88;;;;;;;22.69;51.06;100930.16;8377831;28;20447;-62
2022/05/14 17:47:41;;;;;;;8.23;3.28;;;;;;;22.68;52.03;100920.19;8374427;28;20043;-62
2022/05/14 17:51:42;;;;;;;6.30;2.45;;;;;;;22.64;52.78;100934.59;8395016;28;20040;-62
2022/05/14 17:55:43;;;;;;;10.25;2.28;;;;;;;22.51;53.58;100924.38;8392901;28;20139;-62
2022/05/14 17:59:43;;;;;;;7.20;2.63;;;;;;;22.39;53.87;100934.31;8392350;28;20047;-62
2022/05/14 18:03:47;;;;;;;11.13;2.33;;;;;;;22.13;54.43;100925.91;8407514;28;20044;-62
2022/05/14 18:07:48;;;;;;;7.07;2.35;;;;;;;22.10;54.66;100930.97;8387958;28;20275;-62
2022/05/14 18:11:48;;;;;;;13.55;2.65;;;;;;;21.95;54.70;100931.13;8383306;28;20044;-62
2022/05/14 18:15:49;;;;;;;7.72;2.45;;;;;;;21.81;55.85;100931.25;8385199;28;20506;-62
2022/05/14 18:19:50;;;;;;;10.55;2.42;;;;;;;21.77;55.85;100933.56;8385342;28;20079;-62
2022/05/14 18:23:50;;;;;;;8.90;2.30;;;;;;;21.67;56.35;100929.44;8392380;28;20055;-62
2022/05/14 18:27:57;;;;;;;12.40;2.90;;;;;;;21.61;56.55;100933.88;8396680;28;20064;-62
2022/05/14 18:31:58;;;;;;;10.95;2.67;;;;;;;21.55;56.16;100926.41;8398195;28;20840;-62
2022/05/14 18:36:03;;;;;;;9.82;2.50;;;;;;;21.48;56.32;100936.53;8395652;28;20040;-62
2022/05/14 18:40:08;;;;;;;7.22;2.58;;;;;;;21.42;56.38;100937.34;8395181;28;20507;-62
2022/05/14 18:44:14;;;;;;;7.25;2.17;;;;;;;21.36;57.04;100935.38;8395540;28;20033;-62
2022/05/14 18:48:15;;;;;;;10.55;2.28;;;;;;;21.26;57.05;100938.47;8396700;28;20560;-62
2022/05/14 18:52:16;;;;;;;10.52;2.75;;;;;;;21.07;58.65;100938.28;8390367;28;20043;-62
2022/05/14 18:56:16;;;;;;;9.13;2.42;;;;;;;20.82;59.71;100934.22;8395028;28;20064;-62
2022/05/14 19:00:19;;;;;;;5.93;1.73;;;;;;;20.76;59.30;100937.75;8406506;28;20070;-62
2022/05/14 19:08:40;;;;;;;7.30;2.28;;;;;;;19.90;64.56;100939.66;8386865;28;20098;-62
2022/05/14 19:12:41;;;;;;;8.07;2.15;;;;;;;19.50;66.89;100946.47;8391624;28;20076;-62
2022/05/14 19:16:42;;;;;;;8.70;2.85;;;;;;;19.41;67.23;100953.94;8395599;28;20037;-61
2022/05/14 19:20:42;;;;;;;5.38;2.10;;;;;;;19.51;66.82;100950.06;8395889;28;20527;-61
2022/05/14 19:24:44;;;;;;;7.68;2.33;;;;;;;19.06;68.65;100948.25;8395506;28;20052;-62
2022/05/14 19:28:45;;;;;;;8.85;2.63;;;;;;;18.72;70.10;100961.50;8394245;28;20049;-62
2022/05/14 19:32:45;;;;;;;7.07;2.30;;;;;;;18.77;69.97;100954.47;8391808;28;20451;-62
2022/05/14 19:36:51;;;;;;;7.10;2.40;;;;;;;18.49;70.57;100966.13;8398400;28;20219;-62
2022/05/14 19:40:57;;;;;;;11.10;2.92;;;;;;;18.45;70.41;100960.16;8397941;28;20036;-62
2022/05/14 19:45:03;;;;;;;9.43;2.97;;;;;;;18.41;70.80;100964.28;8398063;28;20048;-62